sensor_id;sensor_type;location;lat;lon;timestamp;temperature;humidity
2495;DHT22;1258;48.336;14.322;2024-02-16T00:00:25;4.10;99.90
2495;DHT22;1258;48.336;14.322;2024-02-16T00:02:52;4.20;99.90
2495;DHT22;1258;48.336;14.322;2024-02-16T00:05:19;4.20;99.90
2495;DHT22;1258;48.336;14.322;2024-02-16T00:07:47;4.10;99.90
2495;DHT22;1258;48.336;14.322;2024-02-16T00:10:16;4.10;99.90
2495;DHT22;1258;48.336;14.322;2024-02-16T00:12:45;4.10;99.90
2495;DHT22;1258;48.336;14.322;2024-02-16T00:15:12;4.20;99.90
2495;DHT22;1258;48.336;14.322;2024-02-16T00:17:39;4.20;99.90
2495;DHT22;1258;48.336;14.322;2024-02-16T00:20:07;4.10;99.90
2495;DHT22;1258;48.336;14.322;2024-02-16T00:22:34;4.20;99.90
2495;DHT22;1258;48.336;14.322;2024-02-16T00:25:02;4.00;99.90
2495;DHT22;1258;48.336;14.322;2024-02-16T00:27:30;4.20;99.90
2495;DHT22;1258;48.336;14.322;2024-02-16T00:29:57;4.20;99.90
2495;DHT22;1258;48.336;14.322;2024-02-16T00:32:25;4.30;99.90
2495;DHT22;1258;48.336;14.322;2024-02-16T00:34:56;4.30;99.90
2495;DHT22;1258;48.336;14.322;2024-02-16T00:37:24;4.30;99.90
2495;DHT22;1258;48.336;14.322;2024-02-16T00:39:51;4.30;99.90
2495;DHT22;1258;48.336;14.322;2024-02-16T00:42:20;4.10;99.90
2495;DHT22;1258;48.336;14.322;2024-02-16T00:44:50;3.80;99.90
2495;DHT22;1258;48.336;14.322;2024-02-16T00:47:17;3.70;99.90
2495;DHT22;1258;48.336;14.322;2024-02-16T00:49:44;3.90;99.90
2495;DHT22;1258;48.336;14.322;2024-02-16T00:52:11;3.70;99.90
2495;DHT22;1258;48.336;14.322;2024-02-16T00:54:38;3.80;99.90
2495;DHT22;1258;48.336;14.322;2024-02-16T00:57:05;3.60;99.90
2495;DHT22;1258;48.336;14.322;2024-02-16T00:59:33;3.40;99.90
2495;DHT22;1258;48.336;14.322;2024-02-16T01:02:01;3.40;99.90
2495;DHT22;1258;48.336;14.322;2024-02-16T01:04:29;3.20;99.90
2495;DHT22;1258;48.336;14.322;2024-02-16T01:06:56;3.00;99.90
2495;DHT22;1258;48.336;14.322;2024-02-16T01:09:23;3.00;99.90
2495;DHT22;1258;48.336;14.322;2024-02-16T01:11:50;2.90;99.90
2495;DHT22;1258;48.336;14.322;2024-02-16T01:14:17;2.70;99.90
2495;DHT22;1258;48.336;14.322;2024-02-16T01:16:45;2.80;99.90
2495;DHT22;1258;48.336;14.322;2024-02-16T01:19:14;3.00;99.90
2495;DHT22;1258;48.336;14.322;2024-02-16T01:21:41;3.20;99.90
2495;DHT22;1258;48.336;14.322;2024-02-16T01:24:08;3.30;99.90
2495;DHT22;1258;48.336;14.322;2024-02-16T01:26:36;3.30;99.90
2495;DHT22;1258;48.336;14.322;2024-02-16T01:29:04;3.40;99.90
2495;DHT22;1258;48.336;14.322;2024-02-16T01:31:31;3.50;99.90
2495;DHT22;1258;48.336;14.322;2024-02-16T01:33:58;3.50;99.90
2495;DHT22;1258;48.336;14.322;2024-02-16T01:36:27;3.60;99.90
2495;DHT22;1258;48.336;14.322;2024-02-16T01:38:54;3.40;99.90
2495;DHT22;1258;48.336;14.322;2024-02-16T01:41:21;3.30;99.90
2495;DHT22;1258;48.336;14.322;2024-02-16T01:43:48;3.20;99.90
2495;DHT22;1258;48.336;14.322;2024-02-16T01:46:15;3.20;99.90
2495;DHT22;1258;48.336;14.322;2024-02-16T01:48:42;3.30;99.90
2495;DHT22;1258;48.336;14.322;2024-02-16T01:51:10;3.30;99.90
2495;DHT22;1258;48.336;14.322;2024-02-16T01:53:40;3.40;99.90
2495;DHT22;1258;48.336;14.322;2024-02-16T01:56:08;3.50;99.90
2495;DHT22;1258;48.336;14.322;2024-02-16T01:58:35;3.60;99.90
2495;DHT22;1258;48.336;14.322;2024-02-16T02:01:04;3.60;99.90
2495;DHT22;1258;48.336;14.322;2024-02-16T02:03:31;3.70;99.90
2495;DHT22;1258;48.336;14.322;2024-02-16T02:05:59;3.70;99.90
2495;DHT22;1258;48.336;14.322;2024-02-16T02:08:26;3.60;99.90
2495;DHT22;1258;48.336;14.322;2024-02-16T02:10:54;3.60;99.90
2495;DHT22;1258;48.336;14.322;2024-02-16T02:13:22;3.60;99.90
2495;DHT22;1258;48.336;14.322;2024-02-16T02:15:49;3.60;99.90
2495;DHT22;1258;48.336;14.322;2024-02-16T02:18:16;3.60;99.90
2495;DHT22;1258;48.336;14.322;2024-02-16T02:20:43;3.60;99.90
2495;DHT22;1258;48.336;14.322;2024-02-16T02:23:12;3.50;99.90
2495;DHT22;1258;48.336;14.322;2024-02-16T02:25:39;3.40;99.90
2495;DHT22;1258;48.336;14.322;2024-02-16T02:28:06;3.40;99.90
2495;DHT22;1258;48.336;14.322;2024-02-16T02:30:33;3.30;99.90
2495;DHT22;1258;48.336;14.322;2024-02-16T02:33:01;3.30;99.90
2495;DHT22;1258;48.336;14.322;2024-02-16T02:35:28;3.40;99.90
2495;DHT22;1258;48.336;14.322;2024-02-16T02:37:55;3.40;99.90
2495;DHT22;1258;48.336;14.322;2024-02-16T02:40:23;3.40;99.90
2495;DHT22;1258;48.336;14.322;2024-02-16T02:42:51;3.40;99.90
2495;DHT22;1258;48.336;14.322;2024-02-16T02:45:19;3.40;99.90
2495;DHT22;1258;48.336;14.322;2024-02-16T02:47:46;3.40;99.90
2495;DHT22;1258;48.336;14.322;2024-02-16T02:50:13;3.30;99.90
2495;DHT22;1258;48.336;14.322;2024-02-16T02:52:40;3.00;99.90
2495;DHT22;1258;48.336;14.322;2024-02-16T02:55:07;3.00;99.90
2495;DHT22;1258;48.336;14.322;2024-02-16T02:57:36;3.00;99.90
2495;DHT22;1258;48.336;14.322;2024-02-16T03:00:04;3.00;99.90
2495;DHT22;1258;48.336;14.322;2024-02-16T03:02:36;3.00;99.90
2495;DHT22;1258;48.336;14.322;2024-02-16T03:05:05;3.10;99.90
2495;DHT22;1258;48.336;14.322;2024-02-16T03:07:32;3.00;99.90
2495;DHT22;1258;48.336;14.322;2024-02-16T03:10:00;3.00;99.90
2495;DHT22;1258;48.336;14.322;2024-02-16T03:12:27;3.00;99.90
2495;DHT22;1258;48.336;14.322;2024-02-16T03:14:56;3.00;99.90
2495;DHT22;1258;48.336;14.322;2024-02-16T03:17:23;3.00;99.90
2495;DHT22;1258;48.336;14.322;2024-02-16T03:19:51;3.00;99.90
2495;DHT22;1258;48.336;14.322;2024-02-16T03:22:18;3.10;99.90
2495;DHT22;1258;48.336;14.322;2024-02-16T03:24:45;3.10;99.90
2495;DHT22;1258;48.336;14.322;2024-02-16T03:27:13;3.10;99.90
2495;DHT22;1258;48.336;14.322;2024-02-16T03:29:40;3.10;99.90
2495;DHT22;1258;48.336;14.322;2024-02-16T03:32:10;3.00;99.90
2495;DHT22;1258;48.336;14.322;2024-02-16T03:34:37;3.10;99.90
2495;DHT22;1258;48.336;14.322;2024-02-16T03:37:05;3.00;99.90
2495;DHT22;1258;48.336;14.322;2024-02-16T03:39:32;3.00;99.90
2495;DHT22;1258;48.336;14.322;2024-02-16T03:41:59;3.00;99.90
2495;DHT22;1258;48.336;14.322;2024-02-16T03:44:26;3.00;99.90
2495;DHT22;1258;48.336;14.322;2024-02-16T03:46:53;2.90;99.90
2495;DHT22;1258;48.336;14.322;2024-02-16T03:49:21;2.90;99.90
2495;DHT22;1258;48.336;14.322;2024-02-16T03:51:48;2.90;99.90
2495;DHT22;1258;48.336;14.322;2024-02-16T03:54:15;2.90;99.90
2495;DHT22;1258;48.336;14.322;2024-02-16T03:56:42;2.60;99.90
2495;DHT22;1258;48.336;14.322;2024-02-16T03:59:10;2.60;99.90
2495;DHT22;1258;48.336;14.322;2024-02-16T04:01:38;2.60;99.90
2495;DHT22;1258;48.336;14.322;2024-02-16T04:04:05;2.70;99.90
2495;DHT22;1258;48.336;14.322;2024-02-16T04:06:33;2.70;99.90
2495;DHT22;1258;48.336;14.322;2024-02-16T04:09:00;2.70;99.90
2495;DHT22;1258;48.336;14.322;2024-02-16T04:11:28;2.60;99.90
2495;DHT22;1258;48.336;14.322;2024-02-16T04:13:56;2.50;99.90
2495;DHT22;1258;48.336;14.322;2024-02-16T04:16:23;2.50;99.90
2495;DHT22;1258;48.336;14.322;2024-02-16T04:18:50;2.50;99.90
2495;DHT22;1258;48.336;14.322;2024-02-16T04:21:17;2.50;99.90
2495;DHT22;1258;48.336;14.322;2024-02-16T04:23:46;2.50;99.90
2495;DHT22;1258;48.336;14.322;2024-02-16T04:26:13;2.50;99.90
2495;DHT22;1258;48.336;14.322;2024-02-16T04:28:40;2.50;99.90
2495;DHT22;1258;48.336;14.322;2024-02-16T04:31:07;2.50;99.90
2495;DHT22;1258;48.336;14.322;2024-02-16T04:33:34;2.50;99.90
2495;DHT22;1258;48.336;14.322;2024-02-16T04:36:01;2.50;99.90
2495;DHT22;1258;48.336;14.322;2024-02-16T04:38:28;2.50;99.90
2495;DHT22;1258;48.336;14.322;2024-02-16T04:40:57;2.50;99.90
2495;DHT22;1258;48.336;14.322;2024-02-16T04:43:24;2.40;99.90
2495;DHT22;1258;48.336;14.322;2024-02-16T04:45:51;2.50;99.90
2495;DHT22;1258;48.336;14.322;2024-02-16T04:48:19;2.30;99.90
2495;DHT22;1258;48.336;14.322;2024-02-16T04:50:46;2.20;99.90
2495;DHT22;1258;48.336;14.322;2024-02-16T04:53:13;2.20;99.90
2495;DHT22;1258;48.336;14.322;2024-02-16T04:55:40;2.10;99.90
2495;DHT22;1258;48.336;14.322;2024-02-16T04:58:09;2.10;99.90
2495;DHT22;1258;48.336;14.322;2024-02-16T05:00:37;2.10;99.90
2495;DHT22;1258;48.336;14.322;2024-02-16T05:03:04;2.10;99.90
2495;DHT22;1258;48.336;14.322;2024-02-16T05:05:31;2.10;99.90
2495;DHT22;1258;48.336;14.322;2024-02-16T05:07:58;2.00;99.90
2495;DHT22;1258;48.336;14.322;2024-02-16T05:10:25;2.10;99.90
2495;DHT22;1258;48.336;14.322;2024-02-16T05:12:53;2.00;99.90
2495;DHT22;1258;48.336;14.322;2024-02-16T05:15:22;2.10;99.90
2495;DHT22;1258;48.336;14.322;2024-02-16T05:17:49;2.10;99.90
2495;DHT22;1258;48.336;14.322;2024-02-16T05:20:18;2.00;99.90
2495;DHT22;1258;48.336;14.322;2024-02-16T05:22:46;2.10;99.90
2495;DHT22;1258;48.336;14.322;2024-02-16T05:25:15;2.10;99.90
2495;DHT22;1258;48.336;14.322;2024-02-16T05:27:43;2.10;99.90
2495;DHT22;1258;48.336;14.322;2024-02-16T05:30:11;2.10;99.90
2495;DHT22;1258;48.336;14.322;2024-02-16T05:32:42;2.10;99.90
2495;DHT22;1258;48.336;14.322;2024-02-16T05:35:10;1.90;99.90
2495;DHT22;1258;48.336;14.322;2024-02-16T05:37:38;1.90;99.90
2495;DHT22;1258;48.336;14.322;2024-02-16T05:40:09;1.90;99.90
2495;DHT22;1258;48.336;14.322;2024-02-16T05:42:47;2.00;99.90
2495;DHT22;1258;48.336;14.322;2024-02-16T05:45:15;2.00;99.90
2495;DHT22;1258;48.336;14.322;2024-02-16T05:47:44;2.00;99.90
2495;DHT22;1258;48.336;14.322;2024-02-16T05:50:12;2.00;99.90
2495;DHT22;1258;48.336;14.322;2024-02-16T05:52:39;1.90;99.90
2495;DHT22;1258;48.336;14.322;2024-02-16T05:55:08;1.90;99.90
2495;DHT22;1258;48.336;14.322;2024-02-16T05:57:35;1.90;99.90
2495;DHT22;1258;48.336;14.322;2024-02-16T06:00:03;1.80;99.90
2495;DHT22;1258;48.336;14.322;2024-02-16T06:02:30;1.60;99.90
2495;DHT22;1258;48.336;14.322;2024-02-16T06:04:59;1.70;99.90
2495;DHT22;1258;48.336;14.322;2024-02-16T06:07:26;1.60;99.90
2495;DHT22;1258;48.336;14.322;2024-02-16T06:09:55;1.50;99.90
2495;DHT22;1258;48.336;14.322;2024-02-16T06:12:22;1.40;99.90
2495;DHT22;1258;48.336;14.322;2024-02-16T06:14:49;1.50;99.90
2495;DHT22;1258;48.336;14.322;2024-02-16T06:17:18;1.60;99.90
2495;DHT22;1258;48.336;14.322;2024-02-16T06:19:45;1.60;99.90
2495;DHT22;1258;48.336;14.322;2024-02-16T06:22:13;1.60;99.90
2495;DHT22;1258;48.336;14.322;2024-02-16T06:24:40;1.60;99.90
2495;DHT22;1258;48.336;14.322;2024-02-16T06:27:07;1.40;99.90
2495;DHT22;1258;48.336;14.322;2024-02-16T06:29:34;1.00;99.90
2495;DHT22;1258;48.336;14.322;2024-02-16T06:32:02;0.70;99.90
2495;DHT22;1258;48.336;14.322;2024-02-16T06:34:30;0.50;99.90
2495;DHT22;1258;48.336;14.322;2024-02-16T06:36:57;0.40;99.90
2495;DHT22;1258;48.336;14.322;2024-02-16T06:39:25;0.40;99.90
2495;DHT22;1258;48.336;14.322;2024-02-16T06:41:52;0.50;99.90
2495;DHT22;1258;48.336;14.322;2024-02-16T06:44:19;0.50;99.90
2495;DHT22;1258;48.336;14.322;2024-02-16T06:46:46;0.50;99.90
2495;DHT22;1258;48.336;14.322;2024-02-16T06:49:13;0.20;99.90
2495;DHT22;1258;48.336;14.322;2024-02-16T06:51:40;0.30;99.90
2495;DHT22;1258;48.336;14.322;2024-02-16T06:54:07;0.50;99.90
2495;DHT22;1258;48.336;14.322;2024-02-16T06:56:35;0.70;99.90
2495;DHT22;1258;48.336;14.322;2024-02-16T06:59:02;0.90;99.90
2495;DHT22;1258;48.336;14.322;2024-02-16T07:01:29;0.80;99.90
2495;DHT22;1258;48.336;14.322;2024-02-16T07:03:56;0.80;99.90
2495;DHT22;1258;48.336;14.322;2024-02-16T07:06:23;1.00;99.90
2495;DHT22;1258;48.336;14.322;2024-02-16T07:08:49;1.00;99.90
2495;DHT22;1258;48.336;14.322;2024-02-16T07:11:17;1.10;99.90
2495;DHT22;1258;48.336;14.322;2024-02-16T07:13:47;0.80;99.90
2495;DHT22;1258;48.336;14.322;2024-02-16T07:16:14;0.50;99.90
2495;DHT22;1258;48.336;14.322;2024-02-16T07:18:42;0.50;99.90
2495;DHT22;1258;48.336;14.322;2024-02-16T07:21:09;0.70;99.90
2495;DHT22;1258;48.336;14.322;2024-02-16T07:23:36;0.80;99.90
2495;DHT22;1258;48.336;14.322;2024-02-16T07:26:04;1.00;99.90
2495;DHT22;1258;48.336;14.322;2024-02-16T07:28:31;1.00;99.90
2495;DHT22;1258;48.336;14.322;2024-02-16T07:30:59;1.20;99.90
2495;DHT22;1258;48.336;14.322;2024-02-16T07:33:26;1.20;99.90
2495;DHT22;1258;48.336;14.322;2024-02-16T07:35:53;1.30;99.90
2495;DHT22;1258;48.336;14.322;2024-02-16T07:38:22;1.40;99.90
2495;DHT22;1258;48.336;14.322;2024-02-16T07:40:49;1.60;99.90
2495;DHT22;1258;48.336;14.322;2024-02-16T07:43:16;1.50;99.90
2495;DHT22;1258;48.336;14.322;2024-02-16T07:45:44;1.40;99.90
2495;DHT22;1258;48.336;14.322;2024-02-16T07:48:12;1.50;99.90
2495;DHT22;1258;48.336;14.322;2024-02-16T07:50:39;1.70;99.90
2495;DHT22;1258;48.336;14.322;2024-02-16T07:53:07;1.70;99.90
2495;DHT22;1258;48.336;14.322;2024-02-16T07:55:36;1.80;99.90
2495;DHT22;1258;48.336;14.322;2024-02-16T07:58:03;1.70;99.90
2495;DHT22;1258;48.336;14.322;2024-02-16T08:00:33;1.60;99.90
2495;DHT22;1258;48.336;14.322;2024-02-16T08:03:00;1.70;99.90
2495;DHT22;1258;48.336;14.322;2024-02-16T08:05:29;1.80;99.90
2495;DHT22;1258;48.336;14.322;2024-02-16T08:07:56;1.60;99.90
2495;DHT22;1258;48.336;14.322;2024-02-16T08:10:23;1.70;99.90
2495;DHT22;1258;48.336;14.322;2024-02-16T08:12:51;1.60;99.90
2495;DHT22;1258;48.336;14.322;2024-02-16T08:15:19;1.80;99.90
2495;DHT22;1258;48.336;14.322;2024-02-16T08:17:49;1.80;99.90
2495;DHT22;1258;48.336;14.322;2024-02-16T08:20:16;2.00;99.90
2495;DHT22;1258;48.336;14.322;2024-02-16T08:22:45;2.00;99.90
2495;DHT22;1258;48.336;14.322;2024-02-16T08:25:12;2.20;99.90
2495;DHT22;1258;48.336;14.322;2024-02-16T08:27:39;2.20;99.90
2495;DHT22;1258;48.336;14.322;2024-02-16T08:30:08;2.40;99.90
2495;DHT22;1258;48.336;14.322;2024-02-16T08:32:35;2.40;99.90
2495;DHT22;1258;48.336;14.322;2024-02-16T08:35:03;2.40;99.90
2495;DHT22;1258;48.336;14.322;2024-02-16T08:37:30;2.40;99.90
2495;DHT22;1258;48.336;14.322;2024-02-16T08:39:59;2.40;99.90
2495;DHT22;1258;48.336;14.322;2024-02-16T08:42:26;2.50;99.90
2495;DHT22;1258;48.336;14.322;2024-02-16T08:44:53;2.70;99.90
2495;DHT22;1258;48.336;14.322;2024-02-16T08:47:20;2.70;99.90
2495;DHT22;1258;48.336;14.322;2024-02-16T08:49:47;2.70;99.90
2495;DHT22;1258;48.336;14.322;2024-02-16T08:52:14;2.70;99.90
2495;DHT22;1258;48.336;14.322;2024-02-16T08:54:42;2.90;99.90
2495;DHT22;1258;48.336;14.322;2024-02-16T08:57:11;2.90;99.90
2495;DHT22;1258;48.336;14.322;2024-02-16T08:59:38;2.60;99.90
2495;DHT22;1258;48.336;14.322;2024-02-16T09:02:05;2.70;99.90
2495;DHT22;1258;48.336;14.322;2024-02-16T09:04:33;2.80;99.90
2495;DHT22;1258;48.336;14.322;2024-02-16T09:07:00;2.60;99.90
2495;DHT22;1258;48.336;14.322;2024-02-16T09:09:28;2.50;99.90
2495;DHT22;1258;48.336;14.322;2024-02-16T09:11:55;2.60;99.90
2495;DHT22;1258;48.336;14.322;2024-02-16T09:14:24;2.70;99.90
2495;DHT22;1258;48.336;14.322;2024-02-16T09:16:51;2.60;99.90
2495;DHT22;1258;48.336;14.322;2024-02-16T09:19:18;2.50;99.90
2495;DHT22;1258;48.336;14.322;2024-02-16T09:21:46;2.50;99.90
2495;DHT22;1258;48.336;14.322;2024-02-16T09:24:13;2.70;99.90
2495;DHT22;1258;48.336;14.322;2024-02-16T09:26:43;2.50;99.90
2495;DHT22;1258;48.336;14.322;2024-02-16T09:29:12;2.50;99.90
2495;DHT22;1258;48.336;14.322;2024-02-16T09:31:41;2.70;99.90
2495;DHT22;1258;48.336;14.322;2024-02-16T09:34:08;3.00;99.90
2495;DHT22;1258;48.336;14.322;2024-02-16T09:36:35;2.90;99.90
2495;DHT22;1258;48.336;14.322;2024-02-16T09:39:03;3.10;99.90
2495;DHT22;1258;48.336;14.322;2024-02-16T09:41:34;3.20;99.90
2495;DHT22;1258;48.336;14.322;2024-02-16T09:44:02;3.10;99.90
2495;DHT22;1258;48.336;14.322;2024-02-16T09:46:30;3.40;99.90
2495;DHT22;1258;48.336;14.322;2024-02-16T09:49:01;3.50;99.90
2495;DHT22;1258;48.336;14.322;2024-02-16T09:51:28;3.50;99.90
2495;DHT22;1258;48.336;14.322;2024-02-16T09:53:56;3.60;99.90
2495;DHT22;1258;48.336;14.322;2024-02-16T09:56:23;3.80;99.90
2495;DHT22;1258;48.336;14.322;2024-02-16T09:58:50;3.90;99.90
2495;DHT22;1258;48.336;14.322;2024-02-16T10:01:18;4.00;99.90
2495;DHT22;1258;48.336;14.322;2024-02-16T10:03:47;4.20;99.90
2495;DHT22;1258;48.336;14.322;2024-02-16T10:06:16;4.30;99.90
2495;DHT22;1258;48.336;14.322;2024-02-16T10:08:49;4.30;99.90
2495;DHT22;1258;48.336;14.322;2024-02-16T10:11:18;4.30;99.90
2495;DHT22;1258;48.336;14.322;2024-02-16T10:13:55;4.30;99.90
2495;DHT22;1258;48.336;14.322;2024-02-16T10:16:23;4.50;99.90
2495;DHT22;1258;48.336;14.322;2024-02-16T10:18:51;4.30;99.90
2495;DHT22;1258;48.336;14.322;2024-02-16T10:21:28;4.50;99.90
2495;DHT22;1258;48.336;14.322;2024-02-16T10:23:59;4.60;99.90
2495;DHT22;1258;48.336;14.322;2024-02-16T10:26:26;4.60;99.90
2495;DHT22;1258;48.336;14.322;2024-02-16T10:28:55;4.30;99.90
2495;DHT22;1258;48.336;14.322;2024-02-16T10:31:23;4.60;99.90
2495;DHT22;1258;48.336;14.322;2024-02-16T10:33:56;4.60;99.90
2495;DHT22;1258;48.336;14.322;2024-02-16T10:36:25;4.70;99.90
2495;DHT22;1258;48.336;14.322;2024-02-16T10:38:55;4.50;99.90
2495;DHT22;1258;48.336;14.322;2024-02-16T10:41:27;4.60;99.90
2495;DHT22;1258;48.336;14.322;2024-02-16T10:43:56;4.60;99.90
2495;DHT22;1258;48.336;14.322;2024-02-16T10:46:23;4.90;99.90
2495;DHT22;1258;48.336;14.322;2024-02-16T10:48:51;5.10;99.90
2495;DHT22;1258;48.336;14.322;2024-02-16T10:51:22;5.00;99.90
2495;DHT22;1258;48.336;14.322;2024-02-16T10:53:52;5.30;99.90
2495;DHT22;1258;48.336;14.322;2024-02-16T10:56:37;5.20;99.90
2495;DHT22;1258;48.336;14.322;2024-02-16T10:59:07;5.40;99.90
2495;DHT22;1258;48.336;14.322;2024-02-16T11:01:38;5.40;99.90
2495;DHT22;1258;48.336;14.322;2024-02-16T11:04:06;5.50;99.90
2495;DHT22;1258;48.336;14.322;2024-02-16T11:06:45;5.70;99.90
2495;DHT22;1258;48.336;14.322;2024-02-16T11:09:25;5.80;99.90
2495;DHT22;1258;48.336;14.322;2024-02-16T11:11:54;5.90;99.90
2495;DHT22;1258;48.336;14.322;2024-02-16T11:14:22;5.70;99.90
2495;DHT22;1258;48.336;14.322;2024-02-16T11:16:54;5.60;99.90
2495;DHT22;1258;48.336;14.322;2024-02-16T11:19:22;5.70;99.90
2495;DHT22;1258;48.336;14.322;2024-02-16T11:21:59;5.80;99.90
2495;DHT22;1258;48.336;14.322;2024-02-16T11:24:30;5.90;99.90
2495;DHT22;1258;48.336;14.322;2024-02-16T11:27:01;5.60;99.90
2495;DHT22;1258;48.336;14.322;2024-02-16T11:29:33;5.90;99.90
2495;DHT22;1258;48.336;14.322;2024-02-16T11:32:00;6.10;99.90
2495;DHT22;1258;48.336;14.322;2024-02-16T11:34:28;6.10;99.90
2495;DHT22;1258;48.336;14.322;2024-02-16T11:36:56;6.20;99.90
2495;DHT22;1258;48.336;14.322;2024-02-16T11:39:23;6.20;99.90
2495;DHT22;1258;48.336;14.322;2024-02-16T11:42:00;6.30;99.90
2495;DHT22;1258;48.336;14.322;2024-02-16T11:44:29;6.30;99.90
2495;DHT22;1258;48.336;14.322;2024-02-16T11:46:56;6.40;99.90
2495;DHT22;1258;48.336;14.322;2024-02-16T11:49:22;6.50;99.90
2495;DHT22;1258;48.336;14.322;2024-02-16T11:51:49;6.50;99.90
2495;DHT22;1258;48.336;14.322;2024-02-16T11:54:17;6.40;99.90
2495;DHT22;1258;48.336;14.322;2024-02-16T11:56:44;6.50;99.90
2495;DHT22;1258;48.336;14.322;2024-02-16T11:59:14;6.40;99.90
2495;DHT22;1258;48.336;14.322;2024-02-16T12:01:54;6.50;99.90
2495;DHT22;1258;48.336;14.322;2024-02-16T12:04:22;6.40;99.90
2495;DHT22;1258;48.336;14.322;2024-02-16T12:06:51;5.70;99.90
2495;DHT22;1258;48.336;14.322;2024-02-16T12:09:18;5.70;99.90
2495;DHT22;1258;48.336;14.322;2024-02-16T12:11:47;5.80;99.90
2495;DHT22;1258;48.336;14.322;2024-02-16T12:14:16;5.90;99.90
2495;DHT22;1258;48.336;14.322;2024-02-16T12:16:47;5.70;99.90
2495;DHT22;1258;48.336;14.322;2024-02-16T12:19:14;5.80;99.90
2495;DHT22;1258;48.336;14.322;2024-02-16T12:21:41;6.00;99.90
2495;DHT22;1258;48.336;14.322;2024-02-16T12:24:08;6.10;99.90
2495;DHT22;1258;48.336;14.322;2024-02-16T12:26:36;6.20;99.90
2495;DHT22;1258;48.336;14.322;2024-02-16T12:29:03;6.20;99.90
2495;DHT22;1258;48.336;14.322;2024-02-16T12:31:31;6.20;99.90
2495;DHT22;1258;48.336;14.322;2024-02-16T12:33:58;6.30;99.90
2495;DHT22;1258;48.336;14.322;2024-02-16T12:36:26;6.40;99.90
2495;DHT22;1258;48.336;14.322;2024-02-16T12:38:53;6.40;99.90
2495;DHT22;1258;48.336;14.322;2024-02-16T12:41:20;6.20;99.90
2495;DHT22;1258;48.336;14.322;2024-02-16T12:43:47;6.30;99.90
2495;DHT22;1258;48.336;14.322;2024-02-16T12:46:14;6.30;99.90
2495;DHT22;1258;48.336;14.322;2024-02-16T12:48:42;6.00;99.90
2495;DHT22;1258;48.336;14.322;2024-02-16T12:51:09;6.20;99.90
2495;DHT22;1258;48.336;14.322;2024-02-16T12:53:37;6.30;99.90
2495;DHT22;1258;48.336;14.322;2024-02-16T12:56:07;6.40;99.90
2495;DHT22;1258;48.336;14.322;2024-02-16T12:58:35;6.60;99.90
2495;DHT22;1258;48.336;14.322;2024-02-16T13:01:02;6.60;99.90
2495;DHT22;1258;48.336;14.322;2024-02-16T13:03:31;6.70;99.90
2495;DHT22;1258;48.336;14.322;2024-02-16T13:06:00;6.70;99.90
2495;DHT22;1258;48.336;14.322;2024-02-16T13:08:27;6.70;99.90
2495;DHT22;1258;48.336;14.322;2024-02-16T13:10:54;6.80;99.90
2495;DHT22;1258;48.336;14.322;2024-02-16T13:13:21;6.80;99.90
2495;DHT22;1258;48.336;14.322;2024-02-16T13:15:48;6.90;99.90
2495;DHT22;1258;48.336;14.322;2024-02-16T13:18:15;7.00;99.90
2495;DHT22;1258;48.336;14.322;2024-02-16T13:20:43;7.00;99.90
2495;DHT22;1258;48.336;14.322;2024-02-16T13:23:11;7.00;99.90
2495;DHT22;1258;48.336;14.322;2024-02-16T13:25:38;6.90;99.90
2495;DHT22;1258;48.336;14.322;2024-02-16T13:28:05;7.00;99.90
2495;DHT22;1258;48.336;14.322;2024-02-16T13:30:32;6.90;99.90
2495;DHT22;1258;48.336;14.322;2024-02-16T13:32:59;7.00;99.90
2495;DHT22;1258;48.336;14.322;2024-02-16T13:35:26;7.00;99.90
2495;DHT22;1258;48.336;14.322;2024-02-16T13:37:54;7.10;99.90
2495;DHT22;1258;48.336;14.322;2024-02-16T13:40:22;7.30;99.90
2495;DHT22;1258;48.336;14.322;2024-02-16T13:42:49;7.20;99.90
2495;DHT22;1258;48.336;14.322;2024-02-16T13:45:16;7.10;99.90
2495;DHT22;1258;48.336;14.322;2024-02-16T13:47:43;7.00;99.90
2495;DHT22;1258;48.336;14.322;2024-02-16T13:50:10;7.20;99.90
2495;DHT22;1258;48.336;14.322;2024-02-16T13:52:37;7.20;99.90
2495;DHT22;1258;48.336;14.322;2024-02-16T13:55:05;7.20;99.90
2495;DHT22;1258;48.336;14.322;2024-02-16T13:57:34;7.20;99.90
2495;DHT22;1258;48.336;14.322;2024-02-16T14:00:01;7.10;99.90
2495;DHT22;1258;48.336;14.322;2024-02-16T14:02:28;7.10;99.90
2495;DHT22;1258;48.336;14.322;2024-02-16T14:04:55;7.00;99.90
2495;DHT22;1258;48.336;14.322;2024-02-16T14:07:22;6.90;99.90
2495;DHT22;1258;48.336;14.322;2024-02-16T14:09:50;6.90;99.90
2495;DHT22;1258;48.336;14.322;2024-02-16T14:12:17;7.00;99.90
2495;DHT22;1258;48.336;14.322;2024-02-16T14:14:45;7.00;99.90
2495;DHT22;1258;48.336;14.322;2024-02-16T14:17:12;7.10;99.90
2495;DHT22;1258;48.336;14.322;2024-02-16T14:19:40;7.00;99.90
2495;DHT22;1258;48.336;14.322;2024-02-16T14:22:07;7.00;99.90
2495;DHT22;1258;48.336;14.322;2024-02-16T14:24:36;6.90;99.90
2495;DHT22;1258;48.336;14.322;2024-02-16T14:27:04;6.70;99.90
2495;DHT22;1258;48.336;14.322;2024-02-16T14:29:31;6.70;99.90
2495;DHT22;1258;48.336;14.322;2024-02-16T14:31:59;6.90;99.90
2495;DHT22;1258;48.336;14.322;2024-02-16T14:34:27;6.90;99.90
2495;DHT22;1258;48.336;14.322;2024-02-16T14:36:54;7.00;99.90
2495;DHT22;1258;48.336;14.322;2024-02-16T14:39:21;6.90;99.90
2495;DHT22;1258;48.336;14.322;2024-02-16T14:41:51;6.70;99.90
2495;DHT22;1258;48.336;14.322;2024-02-16T14:44:19;6.60;99.90
2495;DHT22;1258;48.336;14.322;2024-02-16T14:46:46;6.60;99.90
2495;DHT22;1258;48.336;14.322;2024-02-16T14:49:14;6.70;99.90
2495;DHT22;1258;48.336;14.322;2024-02-16T14:51:46;6.60;99.90
2495;DHT22;1258;48.336;14.322;2024-02-16T14:54:14;6.60;99.90
2495;DHT22;1258;48.336;14.322;2024-02-16T14:56:41;6.50;99.90
2495;DHT22;1258;48.336;14.322;2024-02-16T14:59:08;6.50;99.90
2495;DHT22;1258;48.336;14.322;2024-02-16T15:01:36;6.60;99.90
2495;DHT22;1258;48.336;14.322;2024-02-16T15:04:03;6.70;99.90
2495;DHT22;1258;48.336;14.322;2024-02-16T15:06:31;6.70;99.90
2495;DHT22;1258;48.336;14.322;2024-02-16T15:08:59;6.50;99.90
2495;DHT22;1258;48.336;14.322;2024-02-16T15:11:26;6.50;99.90
2495;DHT22;1258;48.336;14.322;2024-02-16T15:13:53;6.50;99.90
2495;DHT22;1258;48.336;14.322;2024-02-16T15:16:20;6.50;99.90
2495;DHT22;1258;48.336;14.322;2024-02-16T15:18:47;6.40;99.90
2495;DHT22;1258;48.336;14.322;2024-02-16T15:21:14;6.40;99.90
2495;DHT22;1258;48.336;14.322;2024-02-16T15:23:42;6.50;99.90
2495;DHT22;1258;48.336;14.322;2024-02-16T15:26:10;6.50;99.90
2495;DHT22;1258;48.336;14.322;2024-02-16T15:28:37;6.50;99.90
2495;DHT22;1258;48.336;14.322;2024-02-16T15:31:05;6.50;99.90
2495;DHT22;1258;48.336;14.322;2024-02-16T15:33:31;6.60;99.90
2495;DHT22;1258;48.336;14.322;2024-02-16T15:35:58;6.70;99.90
2495;DHT22;1258;48.336;14.322;2024-02-16T15:38:26;6.70;99.90
2495;DHT22;1258;48.336;14.322;2024-02-16T15:40:54;6.80;99.90
2495;DHT22;1258;48.336;14.322;2024-02-16T15:43:21;6.80;99.90
2495;DHT22;1258;48.336;14.322;2024-02-16T15:45:50;6.80;99.90
2495;DHT22;1258;48.336;14.322;2024-02-16T15:48:18;6.70;99.90
2495;DHT22;1258;48.336;14.322;2024-02-16T15:50:45;6.70;99.90
2495;DHT22;1258;48.336;14.322;2024-02-16T15:53:12;6.70;99.90
2495;DHT22;1258;48.336;14.322;2024-02-16T15:55:39;6.70;99.90
2495;DHT22;1258;48.336;14.322;2024-02-16T15:58:09;6.80;99.90
2495;DHT22;1258;48.336;14.322;2024-02-16T16:00:36;6.80;99.90
2495;DHT22;1258;48.336;14.322;2024-02-16T16:03:03;6.70;99.90
2495;DHT22;1258;48.336;14.322;2024-02-16T16:05:30;6.80;99.90